DAL2234 KBOS-KATL
Flight info
| Callsign | DAL2234 |
|---|---|
| Flight time | N/A |
| Altitude | 36000 |
| Route | BLZZR6 BLZZR BAF Q448 PTW J48 MOL FLASK OZZZI2 |
| Aircraft | A21N/M-SDE2E3FGHIRWXY/LB1 |
Departure
| Time | 2026-05-04 22:25 |
|---|---|
| Airport | Boston Logan International Airport (KBOS) |
Arrival
| Time | N/A |
|---|---|
| Airport | Hartsfield Jackson Atlanta International Airport (KATL) |
| Time | Latitude | Longitude | Altitude | Speed | Heading |
|---|---|---|---|---|---|
| 2026-05-04 21:58 | 42.36428 | -71.02437 | 29 ft | 0 kts | 274° |
| 2026-05-04 22:12 | 42.36427 | -71.02423 | 29 ft | 3 kts | 274° |
| 2026-05-04 22:12 | 42.36426 | -71.02399 | 29 ft | 3 kts | 274° |
| 2026-05-04 22:12 | 42.36429 | -71.02376 | 29 ft | 3 kts | 221° |
| 2026-05-04 22:12 | 42.36441 | -71.02368 | 29 ft | 0 kts | 186° |
| 2026-05-04 22:14 | 42.36439 | -71.02368 | 29 ft | 1 kts | 184° |
| 2026-05-04 22:14 | 42.36434 | -71.02367 | 29 ft | 1 kts | 172° |
| 2026-05-04 22:15 | 42.36427 | -71.02365 | 29 ft | 1 kts | 166° |
| 2026-05-04 22:15 | 42.36417 | -71.02359 | 29 ft | 2 kts | 158° |
| 2026-05-04 22:15 | 42.36402 | -71.02351 | 29 ft | 3 kts | 158° |
| 2026-05-04 22:15 | 42.36383 | -71.02341 | 29 ft | 3 kts | 159° |
| 2026-05-04 22:16 | 42.36355 | -71.02335 | 29 ft | 5 kts | 175° |
| 2026-05-04 22:16 | 42.36306 | -71.02337 | 28 ft | 9 kts | 184° |
| 2026-05-04 22:16 | 42.36238 | -71.02344 | 28 ft | 11 kts | 184° |
| 2026-05-04 22:16 | 42.36169 | -71.02349 | 28 ft | 8 kts | 183° |
| 2026-05-04 22:17 | 42.36110 | -71.02339 | 28 ft | 10 kts | 164° |
| 2026-05-04 22:17 | 42.36076 | -71.02318 | 28 ft | 2 kts | 148° |
| 2026-05-04 22:17 | 42.36046 | -71.02287 | 28 ft | 7 kts | 132° |
| 2026-05-04 22:17 | 42.36011 | -71.02209 | 28 ft | 12 kts | 121° |
| 2026-05-04 22:18 | 42.35962 | -71.02099 | 28 ft | 17 kts | 121° |
| 2026-05-04 22:18 | 42.35893 | -71.01941 | 28 ft | 21 kts | 120° |
| 2026-05-04 22:18 | 42.35843 | -71.01764 | 28 ft | 21 kts | 102° |
| 2026-05-04 22:18 | 42.35826 | -71.01609 | 28 ft | 16 kts | 73° |
| 2026-05-04 22:19 | 42.35937 | -71.01526 | 28 ft | 21 kts | 19° |
| 2026-05-04 22:19 | 42.36095 | -71.01453 | 28 ft | 26 kts | 21° |
| 2026-05-04 22:19 | 42.36269 | -71.01369 | 28 ft | 25 kts | 19° |
| 2026-05-04 22:19 | 42.36428 | -71.01291 | 29 ft | 22 kts | 20° |
| 2026-05-04 22:20 | 42.36588 | -71.01214 | 29 ft | 27 kts | 19° |
| 2026-05-04 22:20 | 42.36765 | -71.01147 | 28 ft | 20 kts | 353° |
| 2026-05-04 22:20 | 42.36852 | -71.01220 | 28 ft | 6 kts | 332° |
| 2026-05-04 22:20 | 42.36856 | -71.01223 | 28 ft | 0 kts | 338° |
| 2026-05-04 22:21 | 42.36877 | -71.01225 | 28 ft | 4 kts | 11° |
| 2026-05-04 22:21 | 42.36906 | -71.01200 | 28 ft | 6 kts | 38° |
| 2026-05-04 22:21 | 42.36944 | -71.01159 | 28 ft | 8 kts | 39° |
| 2026-05-04 22:21 | 42.36994 | -71.01109 | 28 ft | 10 kts | 33° |
| 2026-05-04 22:22 | 42.37036 | -71.01079 | 28 ft | 11 kts | 25° |
| 2026-05-04 22:22 | 42.37135 | -71.01017 | 28 ft | 13 kts | 25° |
| 2026-05-04 22:22 | 42.37191 | -71.00981 | 28 ft | 14 kts | 25° |
| 2026-05-04 22:22 | 42.37282 | -71.00925 | 28 ft | 15 kts | 24° |
| 2026-05-04 22:23 | 42.37381 | -71.00869 | 28 ft | 16 kts | 20° |
| 2026-05-04 22:23 | 42.37486 | -71.00820 | 28 ft | 17 kts | 19° |
| 2026-05-04 22:23 | 42.37597 | -71.00768 | 28 ft | 17 kts | 19° |
| 2026-05-04 22:23 | 42.37711 | -71.00711 | 28 ft | 17 kts | 20° |
| 2026-05-04 22:24 | 42.37820 | -71.00646 | 28 ft | 16 kts | 49° |
| 2026-05-04 22:24 | 42.37814 | -71.00508 | 28 ft | 15 kts | 132° |
| 2026-05-04 22:24 | 42.37717 | -71.00508 | 28 ft | 19 kts | 199° |
| 2026-05-04 22:24 | 42.37359 | -71.00679 | 31 ft | 91 kts | 199° |
| 2026-05-04 22:25 | 42.36509 | -71.01090 | 29 ft | 166 kts | 199° |
| 2026-05-04 22:25 | 42.35337 | -71.01650 | 521 ft | 181 kts | 196° |
| 2026-05-04 22:25 | 42.34051 | -71.01494 | 999 ft | 192 kts | 149° |
| 2026-05-04 22:25 | 42.33109 | -71.00313 | 1955 ft | 182 kts | 130° |
| 2026-05-04 22:26 | 42.32282 | -70.98907 | 2477 ft | 203 kts | 128° |
| 2026-05-04 22:26 | 42.31491 | -70.97241 | 3010 ft | 217 kts | 114° |
| 2026-05-04 22:26 | 42.31220 | -70.95212 | 3619 ft | 229 kts | 88° |
| 2026-05-04 22:26 | 42.31440 | -70.92981 | 4111 ft | 247 kts | 79° |
| 2026-05-04 22:27 | 42.31796 | -70.90656 | 4705 ft | 259 kts | 78° |
| 2026-05-04 22:27 | 42.32166 | -70.88270 | 4583 ft | 260 kts | 78° |
| 2026-05-04 22:27 | 42.32529 | -70.85850 | 4234 ft | 265 kts | 78° |
| 2026-05-04 22:27 | 42.32885 | -70.83411 | 4359 ft | 270 kts | 79° |
| 2026-05-04 22:28 | 42.33072 | -70.80874 | 5151 ft | 273 kts | 94° |
| 2026-05-04 22:28 | 42.32627 | -70.78394 | 6153 ft | 273 kts | 113° |
| 2026-05-04 22:28 | 42.31785 | -70.76083 | 7068 ft | 276 kts | 118° |
| 2026-05-04 22:28 | 42.30734 | -70.73899 | 7914 ft | 279 kts | 132° |
| 2026-05-04 22:29 | 42.29212 | -70.72274 | 8731 ft | 282 kts | 155° |
| 2026-05-04 22:29 | 42.27315 | -70.71624 | 9541 ft | 284 kts | 180° |
| 2026-05-04 22:29 | 42.25336 | -70.71857 | 10354 ft | 288 kts | 189° |
| 2026-05-04 22:29 | 42.23330 | -70.72334 | 11007 ft | 298 kts | 191° |
| 2026-05-04 22:30 | 42.21311 | -70.73086 | 11728 ft | 304 kts | 204° |
| 2026-05-04 22:30 | 42.19547 | -70.74661 | 12502 ft | 307 kts | 226° |
| 2026-05-04 22:30 | 42.18342 | -70.77050 | 12967 ft | 323 kts | 249° |
| 2026-05-04 22:30 | 42.17747 | -70.80057 | 13267 ft | 342 kts | 259° |
| 2026-05-04 22:31 | 42.17332 | -70.83287 | 13760 ft | 354 kts | 261° |
| 2026-05-04 22:31 | 42.16925 | -70.86593 | 14443 ft | 360 kts | 261° |
| 2026-05-04 22:31 | 42.16498 | -70.89941 | 15162 ft | 364 kts | 260° |
| 2026-05-04 22:31 | 42.16148 | -70.93340 | 15860 ft | 369 kts | 266° |
| 2026-05-04 22:32 | 42.16163 | -70.96814 | 16541 ft | 372 kts | 274° |
| 2026-05-04 22:32 | 42.16391 | -71.00305 | 17197 ft | 376 kts | 276° |
| 2026-05-04 22:32 | 42.16659 | -71.03826 | 17834 ft | 380 kts | 276° |
| 2026-05-04 22:32 | 42.16931 | -71.07387 | 18450 ft | 383 kts | 276° |
| 2026-05-04 22:33 | 42.17200 | -71.10978 | 19040 ft | 387 kts | 276° |
| 2026-05-04 22:33 | 42.17467 | -71.14606 | 19616 ft | 390 kts | 275° |
| 2026-05-04 22:33 | 42.17733 | -71.18264 | 20182 ft | 394 kts | 275° |
| 2026-05-04 22:33 | 42.17999 | -71.21955 | 20735 ft | 397 kts | 275° |
| 2026-05-04 22:34 | 42.18266 | -71.25681 | 21274 ft | 401 kts | 275° |
| 2026-05-04 22:34 | 42.18534 | -71.29432 | 21798 ft | 404 kts | 275° |
| 2026-05-04 22:34 | 42.18802 | -71.33225 | 22308 ft | 407 kts | 275° |
| 2026-05-04 22:34 | 42.19071 | -71.37039 | 22796 ft | 410 kts | 275° |
| 2026-05-04 22:35 | 42.19340 | -71.40883 | 23264 ft | 413 kts | 275° |
| 2026-05-04 22:35 | 42.19610 | -71.44756 | 23712 ft | 416 kts | 275° |
| 2026-05-04 22:35 | 42.19880 | -71.48655 | 24143 ft | 419 kts | 275° |
| 2026-05-04 22:35 | 42.20151 | -71.52577 | 24557 ft | 422 kts | 275° |
| 2026-05-04 22:36 | 42.20423 | -71.56539 | 24959 ft | 425 kts | 275° |
| 2026-05-04 22:36 | 42.20695 | -71.60517 | 25348 ft | 427 kts | 275° |
| 2026-05-04 22:36 | 42.20967 | -71.64520 | 25728 ft | 430 kts | 275° |
| 2026-05-04 22:36 | 42.21235 | -71.68495 | 26093 ft | 432 kts | 275° |
| 2026-05-04 22:37 | 42.21508 | -71.72552 | 26452 ft | 435 kts | 275° |
| 2026-05-04 22:37 | 42.21640 | -71.76633 | 26792 ft | 437 kts | 269° |
| 2026-05-04 22:37 | 42.21546 | -71.80749 | 27129 ft | 439 kts | 267° |
| 2026-05-04 22:37 | 42.21358 | -71.84876 | 27444 ft | 442 kts | 266° |
| 2026-05-04 22:38 | 42.21121 | -71.89024 | 27759 ft | 444 kts | 265° |
| 2026-05-04 22:38 | 42.20866 | -71.93182 | 28047 ft | 446 kts | 265° |
| 2026-05-04 22:38 | 42.20607 | -71.97378 | 28333 ft | 448 kts | 265° |
| 2026-05-04 22:38 | 42.20353 | -72.01586 | 28613 ft | 451 kts | 265° |
| 2026-05-04 22:39 | 42.20108 | -72.05757 | 28898 ft | 452 kts | 265° |
| 2026-05-04 22:39 | 42.19864 | -72.09977 | 29286 ft | 451 kts | 265° |
| 2026-05-04 22:39 | 42.19622 | -72.14200 | 29683 ft | 450 kts | 265° |
| 2026-05-04 22:39 | 42.19382 | -72.18396 | 30041 ft | 449 kts | 265° |
| 2026-05-04 22:40 | 42.19141 | -72.22599 | 30384 ft | 449 kts | 265° |
| 2026-05-04 22:40 | 42.18899 | -72.26793 | 30723 ft | 448 kts | 265° |
| 2026-05-04 22:40 | 42.18656 | -72.30976 | 31072 ft | 447 kts | 265° |
| 2026-05-04 22:40 | 42.18411 | -72.35152 | 31380 ft | 446 kts | 265° |
| 2026-05-04 22:41 | 42.18165 | -72.39327 | 31695 ft | 446 kts | 265° |
| 2026-05-04 22:41 | 42.17918 | -72.43484 | 31994 ft | 445 kts | 265° |
| 2026-05-04 22:41 | 42.17669 | -72.47639 | 32276 ft | 444 kts | 265° |
| 2026-05-04 22:41 | 42.17419 | -72.51786 | 32554 ft | 444 kts | 265° |
| 2026-05-04 22:42 | 42.17169 | -72.55927 | 32822 ft | 443 kts | 265° |
| 2026-05-04 22:42 | 42.16917 | -72.60062 | 33077 ft | 443 kts | 265° |
| 2026-05-04 22:42 | 42.16657 | -72.64193 | 33326 ft | 442 kts | 263° |
| 2026-05-04 22:42 | 42.16127 | -72.68270 | 33547 ft | 442 kts | 255° |
| 2026-05-04 22:43 | 42.15133 | -72.72190 | 33738 ft | 442 kts | 245° |
| 2026-05-04 22:43 | 42.13647 | -72.75812 | 33949 ft | 442 kts | 236° |
| 2026-05-04 22:43 | 42.11876 | -72.79195 | 34161 ft | 442 kts | 233° |
| 2026-05-04 22:43 | 42.10031 | -72.82449 | 34370 ft | 441 kts | 232° |
| 2026-05-04 22:44 | 42.08122 | -72.85685 | 34560 ft | 441 kts | 231° |
| 2026-05-04 22:44 | 42.06194 | -72.88905 | 34740 ft | 441 kts | 231° |
| 2026-05-04 22:44 | 42.04267 | -72.92121 | 34906 ft | 441 kts | 231° |
| 2026-05-04 22:44 | 42.02344 | -72.95346 | 35095 ft | 441 kts | 231° |
| 2026-05-04 22:45 | 42.00429 | -72.98573 | 35274 ft | 441 kts | 232° |
| 2026-05-04 22:45 | 41.96530 | -73.04939 | 35576 ft | 441 kts | 225° |
| 2026-05-04 22:45 | 41.94233 | -73.07675 | 35728 ft | 441 kts | 216° |
| 2026-05-04 22:46 | 41.91763 | -73.10023 | 35868 ft | 441 kts | 214° |
| 2026-05-04 22:46 | 41.89199 | -73.12286 | 35984 ft | 442 kts | 213° |
| 2026-05-04 22:46 | 41.83978 | -73.16658 | 36002 ft | 441 kts | 212° |
| 2026-05-04 22:47 | 41.78746 | -73.20974 | 35998 ft | 441 kts | 212° |
| 2026-05-04 22:47 | 41.73526 | -73.25309 | 36002 ft | 441 kts | 212° |
| 2026-05-04 22:48 | 41.68327 | -73.29660 | 36004 ft | 441 kts | 214° |
| 2026-05-04 22:48 | 41.63734 | -73.35024 | 36000 ft | 439 kts | 227° |
| 2026-05-04 22:49 | 41.59642 | -73.41098 | 35997 ft | 439 kts | 229° |
| 2026-05-04 22:49 | 41.55654 | -73.47289 | 35996 ft | 439 kts | 230° |
| 2026-05-04 22:50 | 41.51660 | -73.53482 | 35996 ft | 440 kts | 229° |
| 2026-05-04 22:50 | 41.47673 | -73.59605 | 36000 ft | 440 kts | 229° |
| 2026-05-04 22:51 | 41.43650 | -73.65750 | 36002 ft | 439 kts | 229° |
| 2026-05-04 22:51 | 41.39628 | -73.71878 | 35996 ft | 439 kts | 229° |
| 2026-05-04 22:52 | 41.35597 | -73.78005 | 36003 ft | 439 kts | 229° |
| 2026-05-04 22:52 | 41.31533 | -73.84099 | 36001 ft | 439 kts | 228° |
| 2026-05-04 22:53 | 41.27467 | -73.90091 | 35997 ft | 439 kts | 228° |
| 2026-05-04 22:53 | 41.23365 | -73.96115 | 36017 ft | 439 kts | 228° |
| 2026-05-04 22:54 | 41.21311 | -73.99131 | 36159 ft | 439 kts | 228° |
| 2026-05-04 22:54 | 41.19268 | -74.02132 | 36321 ft | 438 kts | 228° |
| 2026-05-04 22:54 | 41.17222 | -74.05134 | 36438 ft | 438 kts | 228° |
| 2026-05-04 22:54 | 41.15175 | -74.08137 | 36547 ft | 438 kts | 228° |
| 2026-05-04 22:55 | 41.11195 | -74.14289 | 36693 ft | 441 kts | 231° |
| 2026-05-04 22:55 | 41.07307 | -74.20642 | 36773 ft | 445 kts | 231° |
| 2026-05-04 22:56 | 41.03395 | -74.27049 | 36854 ft | 449 kts | 231° |
| 2026-05-04 22:56 | 40.99458 | -74.33435 | 36930 ft | 452 kts | 231° |
| 2026-05-04 22:57 | 40.95441 | -74.39910 | 37001 ft | 456 kts | 231° |
| 2026-05-04 22:57 | 40.91386 | -74.46428 | 37029 ft | 461 kts | 231° |
| 2026-05-04 22:58 | 40.87291 | -74.52995 | 37209 ft | 462 kts | 231° |
| 2026-05-04 22:58 | 40.85242 | -74.56277 | 37310 ft | 462 kts | 231° |
| 2026-05-04 22:58 | 40.83196 | -74.59549 | 37397 ft | 463 kts | 231° |
| 2026-05-04 22:59 | 40.79120 | -74.66062 | 37584 ft | 463 kts | 231° |
| 2026-05-04 22:59 | 40.77067 | -74.69335 | 37690 ft | 463 kts | 231° |
| 2026-05-04 22:59 | 40.75016 | -74.72604 | 37783 ft | 463 kts | 231° |
| 2026-05-04 23:00 | 40.72963 | -74.75871 | 37884 ft | 462 kts | 230° |
| 2026-05-04 23:00 | 40.70906 | -74.79142 | 37950 ft | 462 kts | 230° |
| 2026-05-04 23:00 | 40.66787 | -74.85679 | 38000 ft | 463 kts | 230° |
| 2026-05-04 23:01 | 40.62669 | -74.92202 | 38000 ft | 462 kts | 230° |
| 2026-05-04 23:01 | 40.58555 | -74.98705 | 38000 ft | 462 kts | 230° |
| 2026-05-04 23:02 | 40.54471 | -75.05159 | 38000 ft | 462 kts | 230° |
| 2026-05-04 23:02 | 40.50376 | -75.11661 | 38000 ft | 462 kts | 231° |
| 2026-05-04 23:03 | 40.46276 | -75.18168 | 38000 ft | 462 kts | 231° |
| 2026-05-04 23:03 | 40.42170 | -75.24668 | 38000 ft | 462 kts | 230° |
| 2026-05-04 23:04 | 40.38062 | -75.31154 | 38000 ft | 462 kts | 230° |
| 2026-05-04 23:04 | 40.33948 | -75.37634 | 38000 ft | 462 kts | 230° |
| 2026-05-04 23:05 | 40.29858 | -75.44063 | 38000 ft | 462 kts | 230° |
| 2026-05-04 23:05 | 40.25742 | -75.50520 | 38000 ft | 462 kts | 230° |
| 2026-05-04 23:06 | 40.21760 | -75.57113 | 38002 ft | 461 kts | 235° |
| 2026-05-04 23:06 | 40.18158 | -75.64069 | 38000 ft | 461 kts | 237° |
| 2026-05-04 23:07 | 40.14633 | -75.71086 | 38000 ft | 462 kts | 237° |
| 2026-05-04 23:07 | 40.11115 | -75.78105 | 38000 ft | 462 kts | 237° |
| 2026-05-04 23:08 | 40.07600 | -75.85080 | 38000 ft | 462 kts | 237° |
| 2026-05-04 23:08 | 40.04051 | -75.92089 | 38000 ft | 462 kts | 237° |
| 2026-05-04 23:09 | 40.01097 | -75.97908 | 38000 ft | 462 kts | 237° |
| 2026-05-04 23:09 | 39.97546 | -76.04888 | 38000 ft | 462 kts | 237° |
| 2026-05-04 23:10 | 39.93985 | -76.11872 | 38000 ft | 462 kts | 237° |
| 2026-05-04 23:10 | 39.90425 | -76.18842 | 38000 ft | 462 kts | 236° |
| 2026-05-04 23:11 | 39.86860 | -76.25804 | 38000 ft | 462 kts | 236° |
| 2026-05-04 23:11 | 39.83288 | -76.32764 | 38000 ft | 462 kts | 236° |
| 2026-05-04 23:12 | 39.79711 | -76.39720 | 38000 ft | 462 kts | 236° |
| 2026-05-04 23:12 | 39.76133 | -76.46662 | 38000 ft | 462 kts | 236° |
| 2026-05-04 23:13 | 39.72552 | -76.53596 | 38000 ft | 462 kts | 236° |
| 2026-05-04 23:13 | 39.68964 | -76.60526 | 38000 ft | 462 kts | 236° |
| 2026-05-04 23:14 | 39.65392 | -76.67412 | 38000 ft | 462 kts | 236° |
| 2026-05-04 23:14 | 39.61796 | -76.74329 | 38000 ft | 462 kts | 236° |
| 2026-05-04 23:15 | 39.58193 | -76.81244 | 38000 ft | 462 kts | 236° |
| 2026-05-04 23:15 | 39.54591 | -76.88142 | 37999 ft | 462 kts | 236° |
| 2026-05-04 23:16 | 39.50983 | -76.94988 | 37998 ft | 462 kts | 233° |
| 2026-05-04 23:16 | 39.46524 | -77.00966 | 38001 ft | 462 kts | 221° |
| 2026-05-04 23:17 | 39.41591 | -77.06322 | 38000 ft | 463 kts | 219° |
| 2026-05-04 23:17 | 39.36568 | -77.11546 | 38000 ft | 463 kts | 219° |
| 2026-05-04 23:18 | 39.31550 | -77.16760 | 38000 ft | 463 kts | 219° |
| 2026-05-04 23:18 | 39.26537 | -77.21992 | 38000 ft | 463 kts | 219° |
| 2026-05-04 23:19 | 39.21530 | -77.27226 | 38000 ft | 463 kts | 219° |
| 2026-05-04 23:19 | 39.16528 | -77.32448 | 38000 ft | 462 kts | 219° |
| 2026-05-04 23:20 | 39.11556 | -77.37628 | 38000 ft | 462 kts | 219° |
| 2026-05-04 23:20 | 39.06546 | -77.42836 | 38000 ft | 462 kts | 219° |
| 2026-05-04 23:21 | 39.01541 | -77.48029 | 38000 ft | 462 kts | 219° |
| 2026-05-04 23:21 | 38.96539 | -77.53210 | 38000 ft | 462 kts | 219° |
| 2026-05-04 23:22 | 38.91527 | -77.58391 | 38000 ft | 462 kts | 219° |
| 2026-05-04 23:22 | 38.86510 | -77.63567 | 38000 ft | 462 kts | 219° |
| 2026-05-04 23:23 | 38.81525 | -77.68701 | 38000 ft | 462 kts | 219° |
| 2026-05-04 23:23 | 38.76506 | -77.73861 | 38000 ft | 462 kts | 219° |
| 2026-05-04 23:24 | 38.71483 | -77.79015 | 38000 ft | 463 kts | 219° |
| 2026-05-04 23:24 | 38.66455 | -77.84171 | 37999 ft | 463 kts | 220° |
| 2026-05-04 23:25 | 38.62058 | -77.90131 | 38001 ft | 461 kts | 231° |
| 2026-05-04 23:25 | 38.58134 | -77.96623 | 38000 ft | 462 kts | 233° |
| 2026-05-04 23:26 | 38.54301 | -78.03206 | 38000 ft | 462 kts | 233° |
| 2026-05-04 23:26 | 38.50462 | -78.09786 | 38000 ft | 462 kts | 233° |
| 2026-05-04 23:27 | 38.46604 | -78.16345 | 38000 ft | 462 kts | 233° |
| 2026-05-04 23:27 | 38.42759 | -78.22849 | 38000 ft | 462 kts | 233° |
| 2026-05-04 23:28 | 38.38882 | -78.29389 | 38003 ft | 462 kts | 233° |
| 2026-05-04 23:28 | 38.35000 | -78.35927 | 38001 ft | 462 kts | 233° |
| 2026-05-04 23:29 | 38.31114 | -78.42459 | 38000 ft | 462 kts | 233° |
| 2026-05-04 23:29 | 38.27222 | -78.48987 | 38000 ft | 463 kts | 233° |
| 2026-05-04 23:30 | 38.23328 | -78.55506 | 38000 ft | 462 kts | 233° |
| 2026-05-04 23:30 | 38.19454 | -78.61979 | 38000 ft | 462 kts | 233° |
| 2026-05-04 23:31 | 38.15551 | -78.68489 | 38000 ft | 463 kts | 233° |
| 2026-05-04 23:31 | 38.11643 | -78.74993 | 37999 ft | 463 kts | 233° |
| 2026-05-04 23:32 | 38.07716 | -78.81515 | 38000 ft | 465 kts | 233° |
| 2026-05-04 23:32 | 38.03782 | -78.88037 | 38000 ft | 465 kts | 233° |
| 2026-05-04 23:33 | 37.99874 | -78.94500 | 37999 ft | 464 kts | 233° |
| 2026-05-04 23:33 | 37.95937 | -79.01001 | 37999 ft | 464 kts | 232° |
| 2026-05-04 23:34 | 37.91986 | -79.07512 | 38000 ft | 466 kts | 232° |
| 2026-05-04 23:34 | 37.87836 | -79.13843 | 38001 ft | 468 kts | 228° |
| 2026-05-04 23:35 | 37.83481 | -79.19881 | 38001 ft | 467 kts | 228° |
| 2026-05-04 23:35 | 37.79101 | -79.25949 | 38000 ft | 466 kts | 228° |
| 2026-05-04 23:36 | 37.74734 | -79.32003 | 38001 ft | 466 kts | 228° |
| 2026-05-04 23:36 | 37.70366 | -79.38054 | 38000 ft | 464 kts | 228° |
| 2026-05-04 23:37 | 37.66019 | -79.44064 | 38001 ft | 463 kts | 228° |
| 2026-05-04 23:37 | 37.61672 | -79.50065 | 37999 ft | 463 kts | 228° |
| 2026-05-04 23:38 | 37.57346 | -79.56025 | 38000 ft | 463 kts | 227° |
| 2026-05-04 23:38 | 37.52983 | -79.62025 | 38001 ft | 464 kts | 227° |
| 2026-05-04 23:39 | 37.48614 | -79.68021 | 38000 ft | 464 kts | 227° |
| 2026-05-04 23:39 | 37.44243 | -79.74012 | 38000 ft | 465 kts | 227° |
| 2026-05-04 23:40 | 37.39855 | -79.80011 | 38001 ft | 466 kts | 227° |
| 2026-05-04 23:40 | 37.35470 | -79.85998 | 38000 ft | 464 kts | 227° |
| 2026-05-04 23:41 | 37.31093 | -79.91960 | 38000 ft | 464 kts | 227° |
| 2026-05-04 23:41 | 37.26748 | -79.97870 | 38000 ft | 463 kts | 227° |
| 2026-05-04 23:42 | 37.22366 | -80.03819 | 37999 ft | 463 kts | 227° |
| 2026-05-04 23:42 | 37.17985 | -80.09756 | 38000 ft | 464 kts | 227° |
| 2026-05-04 23:43 | 37.13585 | -80.15706 | 38000 ft | 466 kts | 227° |
| 2026-05-04 23:43 | 37.09171 | -80.21665 | 38001 ft | 466 kts | 227° |
| 2026-05-04 23:44 | 37.04755 | -80.27616 | 38000 ft | 466 kts | 227° |
| 2026-05-04 23:44 | 37.00324 | -80.33501 | 38000 ft | 466 kts | 226° |
| 2026-05-04 23:45 | 36.95790 | -80.39310 | 38000 ft | 466 kts | 226° |
| 2026-05-04 23:45 | 36.91252 | -80.45108 | 38000 ft | 467 kts | 226° |
| 2026-05-04 23:46 | 36.86701 | -80.50916 | 38000 ft | 467 kts | 226° |
| 2026-05-04 23:46 | 36.82156 | -80.56709 | 38000 ft | 467 kts | 226° |
| 2026-05-04 23:47 | 36.77609 | -80.62494 | 38002 ft | 467 kts | 226° |
| 2026-05-04 23:47 | 36.73090 | -80.68234 | 37999 ft | 467 kts | 226° |
| 2026-05-04 23:48 | 36.68536 | -80.74007 | 38000 ft | 467 kts | 226° |
| 2026-05-04 23:48 | 36.63974 | -80.79781 | 38000 ft | 467 kts | 226° |
| 2026-05-04 23:49 | 36.59405 | -80.85553 | 38005 ft | 467 kts | 226° |
| 2026-05-04 23:49 | 36.54869 | -80.91272 | 37997 ft | 467 kts | 225° |
| 2026-05-04 23:50 | 36.50305 | -80.97018 | 38000 ft | 467 kts | 225° |
| 2026-05-04 23:50 | 36.45736 | -81.02759 | 38000 ft | 467 kts | 225° |
| 2026-05-04 23:51 | 36.43461 | -81.05614 | 37758 ft | 463 kts | 225° |
| 2026-05-04 23:51 | 36.41195 | -81.08455 | 37011 ft | 463 kts | 225° |
| 2026-05-04 23:51 | 36.38917 | -81.11308 | 36197 ft | 465 kts | 225° |
| 2026-05-04 23:51 | 36.36638 | -81.14161 | 35418 ft | 466 kts | 225° |
| 2026-05-04 23:52 | 36.34351 | -81.17020 | 34581 ft | 468 kts | 225° |
| 2026-05-04 23:52 | 36.32054 | -81.19891 | 33718 ft | 469 kts | 225° |
| 2026-05-04 23:52 | 36.29752 | -81.22769 | 32855 ft | 471 kts | 225° |
| 2026-05-04 23:52 | 36.27461 | -81.25630 | 31957 ft | 473 kts | 225° |